sensor_id;sensor_type;location;lat;lon;timestamp;pressure;altitude;pressure_sealevel;temperature;humidity
52923;BME280;38796;42.702;23.306;2023-01-27T00:01:18;94435.06;;;-2.01;100.00
52923;BME280;38796;42.702;23.306;2023-01-27T00:03:16;94451.53;;;-2.04;100.00
52923;BME280;38796;42.702;23.306;2023-01-27T00:05:17;94443.88;;;-2.05;100.00
52923;BME280;38796;42.702;23.306;2023-01-27T00:07:15;94444.63;;;-2.03;100.00
52923;BME280;38796;42.702;23.306;2023-01-27T00:09:14;94454.19;;;-2.05;100.00
52923;BME280;38796;42.702;23.306;2023-01-27T00:11:12;94450.69;;;-2.04;100.00
52923;BME280;38796;42.702;23.306;2023-01-27T00:13:28;94430.72;;;-2.01;100.00
52923;BME280;38796;42.702;23.306;2023-01-27T00:15:28;94445.44;;;-2.03;100.00
52923;BME280;38796;42.702;23.306;2023-01-27T00:17:27;94434.97;;;-2.00;100.00
52923;BME280;38796;42.702;23.306;2023-01-27T00:19:25;94436.72;;;-2.00;100.00
52923;BME280;38796;42.702;23.306;2023-01-27T00:21:25;94431.56;;;-2.00;100.00
52923;BME280;38796;42.702;23.306;2023-01-27T00:23:41;94428.06;;;-1.99;100.00
52923;BME280;38796;42.702;23.306;2023-01-27T00:25:57;94413.25;;;-1.96;100.00
52923;BME280;38796;42.702;23.306;2023-01-27T00:27:56;94405.34;;;-1.92;100.00
52923;BME280;38796;42.702;23.306;2023-01-27T00:29:54;94415.00;;;-1.96;100.00
52923;BME280;38796;42.702;23.306;2023-01-27T00:31:55;94407.28;;;-1.96;100.00
52923;BME280;38796;42.702;23.306;2023-01-27T00:34:11;94414.19;;;-1.97;100.00
52923;BME280;38796;42.702;23.306;2023-01-27T00:36:09;94410.00;;;-1.99;100.00
52923;BME280;38796;42.702;23.306;2023-01-27T00:38:09;94403.94;;;-1.98;100.00
52923;BME280;38796;42.702;23.306;2023-01-27T00:40:09;94420.94;;;-1.94;100.00
52923;BME280;38796;42.702;23.306;2023-01-27T00:42:08;94421.75;;;-1.94;100.00
52923;BME280;38796;42.702;23.306;2023-01-27T00:44:07;94407.13;;;-1.93;100.00
52923;BME280;38796;42.702;23.306;2023-01-27T00:46:10;94401.84;;;-1.91;100.00
52923;BME280;38796;42.702;23.306;2023-01-27T00:48:07;94409.53;;;-1.90;100.00
52923;BME280;38796;42.702;23.306;2023-01-27T00:50:06;94417.28;;;-1.90;100.00
52923;BME280;38796;42.702;23.306;2023-01-27T00:52:05;94421.75;;;-1.94;100.00
52923;BME280;38796;42.702;23.306;2023-01-27T00:54:05;94425.16;;;-1.93;100.00
52923;BME280;38796;42.702;23.306;2023-01-27T00:56:04;94423.25;;;-1.89;100.00
52923;BME280;38796;42.702;23.306;2023-01-27T00:58:03;94418.94;;;-1.89;100.00
52923;BME280;38796;42.702;23.306;2023-01-27T01:00:01;94416.28;;;-1.87;100.00
52923;BME280;38796;42.702;23.306;2023-01-27T01:02:00;94413.88;;;-1.90;100.00
52923;BME280;38796;42.702;23.306;2023-01-27T01:03:59;94417.34;;;-1.91;100.00
52923;BME280;38796;42.702;23.306;2023-01-27T01:05:58;94421.50;;;-1.89;100.00
52923;BME280;38796;42.702;23.306;2023-01-27T01:07:57;94419.03;;;-1.90;100.00
52923;BME280;38796;42.702;23.306;2023-01-27T01:09:58;94412.38;;;-1.95;100.00
52923;BME280;38796;42.702;23.306;2023-01-27T01:11:57;94409.53;;;-1.90;100.00
52923;BME280;38796;42.702;23.306;2023-01-27T01:13:55;94412.03;;;-1.88;100.00
52923;BME280;38796;42.702;23.306;2023-01-27T01:15:53;94415.38;;;-1.86;100.00
52923;BME280;38796;42.702;23.306;2023-01-27T01:17:51;94412.78;;;-1.86;100.00
52923;BME280;38796;42.702;23.306;2023-01-27T01:19:50;94417.19;;;-1.88;100.00
52923;BME280;38796;42.702;23.306;2023-01-27T01:21:48;94413.63;;;-1.86;100.00
52923;BME280;38796;42.702;23.306;2023-01-27T01:23:47;94419.69;;;-1.87;100.00
52923;BME280;38796;42.702;23.306;2023-01-27T01:25:52;94426.75;;;-1.90;100.00
52923;BME280;38796;42.702;23.306;2023-01-27T01:27:52;94422.28;;;-1.87;100.00
52923;BME280;38796;42.702;23.306;2023-01-27T01:29:50;94416.97;;;-1.84;100.00
52923;BME280;38796;42.702;23.306;2023-01-27T01:31:49;94411.69;;;-1.82;100.00
52923;BME280;38796;42.702;23.306;2023-01-27T01:33:48;94400.63;;;-1.84;100.00
52923;BME280;38796;42.702;23.306;2023-01-27T01:35:46;94409.28;;;-1.85;100.00
52923;BME280;38796;42.702;23.306;2023-01-27T01:37:45;94418.63;;;-1.83;100.00
52923;BME280;38796;42.702;23.306;2023-01-27T01:39:43;94424.75;;;-1.85;100.00
52923;BME280;38796;42.702;23.306;2023-01-27T01:41:43;94428.28;;;-1.86;100.00
52923;BME280;38796;42.702;23.306;2023-01-27T01:43:41;94424.19;;;-1.75;100.00
52923;BME280;38796;42.702;23.306;2023-01-27T01:45:52;94427.59;;;-1.74;100.00
52923;BME280;38796;42.702;23.306;2023-01-27T01:47:50;94434.63;;;-1.76;100.00
52923;BME280;38796;42.702;23.306;2023-01-27T01:49:48;94432.09;;;-1.78;100.00
52923;BME280;38796;42.702;23.306;2023-01-27T01:51:49;94430.28;;;-1.76;100.00
52923;BME280;38796;42.702;23.306;2023-01-27T01:53:52;94421.03;;;-1.80;100.00
52923;BME280;38796;42.702;23.306;2023-01-27T01:55:52;94422.78;;;-1.80;100.00
52923;BME280;38796;42.702;23.306;2023-01-27T01:57:52;94399.56;;;-1.80;100.00
52923;BME280;38796;42.702;23.306;2023-01-27T01:59:54;94408.88;;;-1.78;100.00
52923;BME280;38796;42.702;23.306;2023-01-27T02:01:57;94403.72;;;-1.78;100.00
52923;BME280;38796;42.702;23.306;2023-01-27T02:04:04;94400.13;;;-1.75;100.00
52923;BME280;38796;42.702;23.306;2023-01-27T02:06:04;94400.13;;;-1.75;100.00
52923;BME280;38796;42.702;23.306;2023-01-27T02:08:08;94385.59;;;-1.76;100.00
52923;BME280;38796;42.702;23.306;2023-01-27T02:10:09;94380.56;;;-1.79;100.00
52923;BME280;38796;42.702;23.306;2023-01-27T02:12:08;94380.56;;;-1.79;100.00
52923;BME280;38796;42.702;23.306;2023-01-27T02:14:09;94372.50;;;-1.73;100.00
52923;BME280;38796;42.702;23.306;2023-01-27T02:16:11;94369.16;;;-1.75;100.00
52923;BME280;38796;42.702;23.306;2023-01-27T02:18:10;94362.16;;;-1.73;100.00
52923;BME280;38796;42.702;23.306;2023-01-27T02:20:16;94364.75;;;-1.73;100.00
52923;BME280;38796;42.702;23.306;2023-01-27T02:22:22;94351.84;;;-1.73;100.00
52923;BME280;38796;42.702;23.306;2023-01-27T02:24:21;94353.69;;;-1.75;100.00
52923;BME280;38796;42.702;23.306;2023-01-27T02:26:24;94347.03;;;-1.79;100.00
52923;BME280;38796;42.702;23.306;2023-01-27T02:28:26;94351.44;;;-1.81;100.00
52923;BME280;38796;42.702;23.306;2023-01-27T02:30:25;94347.03;;;-1.79;100.00
52923;BME280;38796;42.702;23.306;2023-01-27T02:32:25;94349.50;;;-1.78;100.00
52923;BME280;38796;42.702;23.306;2023-01-27T02:34:29;94347.75;;;-1.77;100.00
52923;BME280;38796;42.702;23.306;2023-01-27T02:36:32;94351.84;;;-1.73;100.00
52923;BME280;38796;42.702;23.306;2023-01-27T02:38:34;94348.16;;;-1.37;100.00
52923;BME280;38796;42.702;23.306;2023-01-27T02:40:33;94354.44;;;-1.57;100.00
52923;BME280;38796;42.702;23.306;2023-01-27T02:42:35;94353.44;;;-1.71;100.00
52923;BME280;38796;42.702;23.306;2023-01-27T02:44:34;94352.03;;;-1.76;100.00
52923;BME280;38796;42.702;23.306;2023-01-27T02:46:33;94349.25;;;-1.73;100.00
52923;BME280;38796;42.702;23.306;2023-01-27T02:48:31;94356.25;;;-1.59;100.00
52923;BME280;38796;42.702;23.306;2023-01-27T02:50:30;94366.09;;;-1.50;100.00
52923;BME280;38796;42.702;23.306;2023-01-27T02:52:28;94361.75;;;-1.50;100.00
52923;BME280;38796;42.702;23.306;2023-01-27T02:54:27;94371.41;;;-1.53;100.00
52923;BME280;38796;42.702;23.306;2023-01-27T02:56:27;94372.91;;;-1.49;100.00
52923;BME280;38796;42.702;23.306;2023-01-27T02:58:27;94363.34;;;-1.63;100.00
52923;BME280;38796;42.702;23.306;2023-01-27T03:00:33;94361.00;;;-1.67;100.00
52923;BME280;38796;42.702;23.306;2023-01-27T03:02:32;94355.28;;;-1.73;100.00
52923;BME280;38796;42.702;23.306;2023-01-27T03:04:31;94356.38;;;-1.77;100.00
52923;BME280;38796;42.702;23.306;2023-01-27T03:06:34;94355.69;;;-1.80;100.00
52923;BME280;38796;42.702;23.306;2023-01-27T03:08:33;94348.13;;;-1.83;100.00
52923;BME280;38796;42.702;23.306;2023-01-27T03:10:33;94349.00;;;-1.84;100.00
52923;BME280;38796;42.702;23.306;2023-01-27T03:12:32;94355.59;;;-1.79;100.00
52923;BME280;38796;42.702;23.306;2023-01-27T03:14:30;94349.50;;;-1.78;100.00
52923;BME280;38796;42.702;23.306;2023-01-27T03:16:47;94341.09;;;-1.81;100.00
52923;BME280;38796;42.702;23.306;2023-01-27T03:19:02;94338.47;;;-1.80;100.00
52923;BME280;38796;42.702;23.306;2023-01-27T03:21:04;94331.72;;;-1.82;100.00
52923;BME280;38796;42.702;23.306;2023-01-27T03:23:03;94329.97;;;-1.82;100.00
52923;BME280;38796;42.702;23.306;2023-01-27T03:25:03;94335.63;;;-1.75;100.00
52923;BME280;38796;42.702;23.306;2023-01-27T03:27:01;94322.72;;;-1.75;100.00
52923;BME280;38796;42.702;23.306;2023-01-27T03:29:19;94319.22;;;-1.74;100.00
52923;BME280;38796;42.702;23.306;2023-01-27T03:31:51;94313.31;;;-1.76;100.00
52923;BME280;38796;42.702;23.306;2023-01-27T03:33:50;94320.22;;;-1.77;100.00
52923;BME280;38796;42.702;23.306;2023-01-27T03:35:56;94307.41;;;-1.78;100.00
52923;BME280;38796;42.702;23.306;2023-01-27T03:38:17;94304.09;;;-1.80;100.00
52923;BME280;38796;42.702;23.306;2023-01-27T03:40:34;94304.25;;;-1.83;100.00
52923;BME280;38796;42.702;23.306;2023-01-27T03:42:51;94308.38;;;-1.81;100.00
52923;BME280;38796;42.702;23.306;2023-01-27T03:45:08;94300.66;;;-1.81;100.00
52923;BME280;38796;42.702;23.306;2023-01-27T03:47:26;94287.84;;;-1.82;100.00
52923;BME280;38796;42.702;23.306;2023-01-27T03:49:25;94286.19;;;-1.83;100.00
52923;BME280;38796;42.702;23.306;2023-01-27T03:51:24;94285.59;;;-1.88;100.00
52923;BME280;38796;42.702;23.306;2023-01-27T03:53:23;94287.28;;;-1.87;100.00
52923;BME280;38796;42.702;23.306;2023-01-27T03:55:21;94290.41;;;-1.82;100.00
52923;BME280;38796;42.702;23.306;2023-01-27T03:57:20;94296.41;;;-1.82;100.00
52923;BME280;38796;42.702;23.306;2023-01-27T03:59:18;94294.44;;;-1.77;100.00
52923;BME280;38796;42.702;23.306;2023-01-27T04:01:18;94294.50;;;-1.78;100.00
52923;BME280;38796;42.702;23.306;2023-01-27T04:03:19;94280.00;;;-1.81;100.00
52923;BME280;38796;42.702;23.306;2023-01-27T04:05:35;94289.59;;;-1.83;100.00
52923;BME280;38796;42.702;23.306;2023-01-27T04:07:51;94309.06;;;-1.77;100.00
52923;BME280;38796;42.702;23.306;2023-01-27T04:09:50;94318.66;;;-1.79;100.00
52923;BME280;38796;42.702;23.306;2023-01-27T04:11:48;94318.53;;;-1.78;100.00
52923;BME280;38796;42.702;23.306;2023-01-27T04:13:52;94324.53;;;-1.77;100.00
52923;BME280;38796;42.702;23.306;2023-01-27T04:15:53;94340.03;;;-1.77;100.00
52923;BME280;38796;42.702;23.306;2023-01-27T04:17:51;94352.03;;;-1.76;100.00
52923;BME280;38796;42.702;23.306;2023-01-27T04:19:51;94359.84;;;-1.78;100.00
52923;BME280;38796;42.702;23.306;2023-01-27T04:21:51;94359.84;;;-1.78;100.00
52923;BME280;38796;42.702;23.306;2023-01-27T04:23:49;94359.00;;;-1.78;100.00
52923;BME280;38796;42.702;23.306;2023-01-27T04:25:48;94348.53;;;-1.75;100.00
52923;BME280;38796;42.702;23.306;2023-01-27T04:27:50;94352.59;;;-1.71;100.00
52923;BME280;38796;42.702;23.306;2023-01-27T04:29:48;94362.00;;;-1.70;100.00
52923;BME280;38796;42.702;23.306;2023-01-27T04:31:47;94367.09;;;-1.68;100.00
52923;BME280;38796;42.702;23.306;2023-01-27T04:33:45;94375.72;;;-1.70;100.00
52923;BME280;38796;42.702;23.306;2023-01-27T04:35:45;94388.56;;;-1.68;100.00
52923;BME280;38796;42.702;23.306;2023-01-27T04:37:43;94378.97;;;-1.66;100.00
52923;BME280;38796;42.702;23.306;2023-01-27T04:39:42;94378.00;;;-1.63;100.00
52923;BME280;38796;42.702;23.306;2023-01-27T04:41:41;94378.00;;;-1.63;100.00
52923;BME280;38796;42.702;23.306;2023-01-27T04:43:40;94373.66;;;-1.63;100.00
52923;BME280;38796;42.702;23.306;2023-01-27T04:45:39;94381.41;;;-1.63;100.00
52923;BME280;38796;42.702;23.306;2023-01-27T04:47:37;94385.91;;;-1.66;100.00
52923;BME280;38796;42.702;23.306;2023-01-27T04:49:35;94381.56;;;-1.66;100.00
52923;BME280;38796;42.702;23.306;2023-01-27T04:51:35;94362.84;;;-1.54;100.00
52923;BME280;38796;42.702;23.306;2023-01-27T04:53:34;94362.59;;;-1.49;100.00
52923;BME280;38796;42.702;23.306;2023-01-27T04:55:32;94380.81;;;-1.52;100.00
52923;BME280;38796;42.702;23.306;2023-01-27T04:57:31;94392.75;;;-1.50;100.00
52923;BME280;38796;42.702;23.306;2023-01-27T04:59:29;94392.63;;;-1.48;100.00
52923;BME280;38796;42.702;23.306;2023-01-27T05:01:28;94389.06;;;-1.46;100.00
52923;BME280;38796;42.702;23.306;2023-01-27T05:03:26;94387.31;;;-1.45;100.00
52923;BME280;38796;42.702;23.306;2023-01-27T05:05:25;94378.75;;;-1.46;100.00
52923;BME280;38796;42.702;23.306;2023-01-27T05:07:24;94387.41;;;-1.47;100.00
52923;BME280;38796;42.702;23.306;2023-01-27T05:09:23;94390.97;;;-1.49;100.00
52923;BME280;38796;42.702;23.306;2023-01-27T05:11:21;94394.41;;;-1.49;100.00
52923;BME280;38796;42.702;23.306;2023-01-27T05:13:20;94393.25;;;-1.43;100.00
52923;BME280;38796;42.702;23.306;2023-01-27T05:15:18;94382.25;;;-1.47;100.00
52923;BME280;38796;42.702;23.306;2023-01-27T05:17:16;94379.66;;;-1.47;100.00
52923;BME280;38796;42.702;23.306;2023-01-27T05:19:14;94368.56;;;-1.49;100.00
52923;BME280;38796;42.702;23.306;2023-01-27T05:21:14;94380.66;;;-1.49;100.00
52923;BME280;38796;42.702;23.306;2023-01-27T05:23:15;94386.59;;;-1.47;100.00
52923;BME280;38796;42.702;23.306;2023-01-27T05:25:30;94380.66;;;-1.49;100.00
52923;BME280;38796;42.702;23.306;2023-01-27T05:27:29;94386.06;;;-1.54;100.00
52923;BME280;38796;42.702;23.306;2023-01-27T05:29:27;94369.66;;;-1.53;100.00
52923;BME280;38796;42.702;23.306;2023-01-27T05:31:28;94364.16;;;-1.47;100.00
52923;BME280;38796;42.702;23.306;2023-01-27T05:33:27;94361.75;;;-1.50;100.00
52923;BME280;38796;42.702;23.306;2023-01-27T05:35:26;94359.28;;;-1.51;100.00
52923;BME280;38796;42.702;23.306;2023-01-27T05:37:25;94355.16;;;-1.55;100.00
52923;BME280;38796;42.702;23.306;2023-01-27T05:39:25;94371.56;;;-1.56;100.00
52923;BME280;38796;42.702;23.306;2023-01-27T05:41:23;94354.50;;;-1.59;100.00
52923;BME280;38796;42.702;23.306;2023-01-27T05:43:22;94347.63;;;-1.58;100.00
52923;BME280;38796;42.702;23.306;2023-01-27T05:45:20;94344.94;;;-1.57;100.00
52923;BME280;38796;42.702;23.306;2023-01-27T05:47:18;94348.50;;;-1.59;100.00
52923;BME280;38796;42.702;23.306;2023-01-27T05:49:16;94351.75;;;-1.56;100.00
52923;BME280;38796;42.702;23.306;2023-01-27T05:51:16;94344.69;;;-1.52;100.00
52923;BME280;38796;42.702;23.306;2023-01-27T05:53:15;94355.81;;;-1.52;100.00
52923;BME280;38796;42.702;23.306;2023-01-27T05:55:16;94349.97;;;-1.24;100.00
52923;BME280;38796;42.702;23.306;2023-01-27T05:57:15;94350.66;;;-1.36;100.00
52923;BME280;38796;42.702;23.306;2023-01-27T05:59:13;94358.00;;;-1.44;100.00
52923;BME280;38796;42.702;23.306;2023-01-27T06:01:13;94356.69;;;-1.51;100.00
52923;BME280;38796;42.702;23.306;2023-01-27T06:03:12;94368.66;;;-1.50;100.00
52923;BME280;38796;42.702;23.306;2023-01-27T06:05:11;94372.91;;;-1.49;100.00
52923;BME280;38796;42.702;23.306;2023-01-27T06:07:09;94385.00;;;-1.50;100.00
52923;BME280;38796;42.702;23.306;2023-01-27T06:09:09;94370.25;;;-1.48;100.00
52923;BME280;38796;42.702;23.306;2023-01-27T06:11:08;94361.84;;;-1.51;100.00
52923;BME280;38796;42.702;23.306;2023-01-27T06:13:07;94356.03;;;-1.55;100.00
52923;BME280;38796;42.702;23.306;2023-01-27T06:15:06;94361.84;;;-1.51;100.00
52923;BME280;38796;42.702;23.306;2023-01-27T06:17:04;94367.47;;;-1.45;100.00
52923;BME280;38796;42.702;23.306;2023-01-27T06:19:03;94373.56;;;-1.46;100.00
52923;BME280;38796;42.702;23.306;2023-01-27T06:21:06;94364.00;;;-1.43;100.00
52923;BME280;38796;42.702;23.306;2023-01-27T06:23:05;94368.16;;;-1.41;100.00
52923;BME280;38796;42.702;23.306;2023-01-27T06:25:04;94371.81;;;-1.45;100.00
52923;BME280;38796;42.702;23.306;2023-01-27T06:27:04;94375.06;;;-1.41;100.00
52923;BME280;38796;42.702;23.306;2023-01-27T06:29:03;94374.06;;;-1.39;100.00
52923;BME280;38796;42.702;23.306;2023-01-27T06:31:05;94370.72;;;-1.41;100.00
52923;BME280;38796;42.702;23.306;2023-01-27T06:33:05;94369.75;;;-1.38;100.00
52923;BME280;38796;42.702;23.306;2023-01-27T06:35:04;94383.31;;;-1.35;100.00
52923;BME280;38796;42.702;23.306;2023-01-27T06:37:02;94376.50;;;-1.36;100.00
52923;BME280;38796;42.702;23.306;2023-01-27T06:39:01;94371.22;;;-1.34;100.00
52923;BME280;38796;42.702;23.306;2023-01-27T06:40:59;94368.81;;;-1.37;100.00
52923;BME280;38796;42.702;23.306;2023-01-27T06:42:59;94370.50;;;-1.36;100.00
52923;BME280;38796;42.702;23.306;2023-01-27T06:44:57;94382.22;;;-1.31;100.00
52923;BME280;38796;42.702;23.306;2023-01-27T06:46:56;94379.47;;;-1.28;100.00
52923;BME280;38796;42.702;23.306;2023-01-27T06:48:54;94388.72;;;-1.24;100.00
52923;BME280;38796;42.702;23.306;2023-01-27T06:50:53;94378.22;;;-1.21;100.00
52923;BME280;38796;42.702;23.306;2023-01-27T06:52:52;94376.19;;;-1.15;100.00
52923;BME280;38796;42.702;23.306;2023-01-27T06:54:50;94387.28;;;-1.13;100.00
52923;BME280;38796;42.702;23.306;2023-01-27T06:56:48;94392.44;;;-1.13;100.00
52923;BME280;38796;42.702;23.306;2023-01-27T06:58:48;94391.63;;;-1.14;100.00
52923;BME280;38796;42.702;23.306;2023-01-27T07:00:47;94389.31;;;-1.18;100.00
52923;BME280;38796;42.702;23.306;2023-01-27T07:02:45;94387.56;;;-1.18;100.00
52923;BME280;38796;42.702;23.306;2023-01-27T07:04:43;94398.13;;;-1.07;100.00
52923;BME280;38796;42.702;23.306;2023-01-27T07:06:42;94400.44;;;-1.02;100.00
52923;BME280;38796;42.702;23.306;2023-01-27T07:08:40;94403.94;;;-1.03;100.00
52923;BME280;38796;42.702;23.306;2023-01-27T07:10:41;94402.75;;;-0.98;100.00
52923;BME280;38796;42.702;23.306;2023-01-27T07:12:39;94394.94;;;-0.96;100.00
52923;BME280;38796;42.702;23.306;2023-01-27T07:14:39;94394.94;;;-0.96;100.00
52923;BME280;38796;42.702;23.306;2023-01-27T07:16:37;94398.25;;;-0.94;100.00
52923;BME280;38796;42.702;23.306;2023-01-27T07:18:35;94399.66;;;-0.88;100.00
52923;BME280;38796;42.702;23.306;2023-01-27T07:20:34;94390.63;;;-0.81;100.00
52923;BME280;38796;42.702;23.306;2023-01-27T07:22:32;94392.22;;;-0.79;100.00
52923;BME280;38796;42.702;23.306;2023-01-27T07:24:31;94387.78;;;-0.77;100.00
52923;BME280;38796;42.702;23.306;2023-01-27T07:26:29;94384.03;;;-0.71;100.00
52923;BME280;38796;42.702;23.306;2023-01-27T07:28:27;94389.91;;;-0.69;100.00
52923;BME280;38796;42.702;23.306;2023-01-27T07:30:27;94385.34;;;-0.64;100.00
52923;BME280;38796;42.702;23.306;2023-01-27T07:32:25;94386.34;;;-0.66;100.00
52923;BME280;38796;42.702;23.306;2023-01-27T07:34:24;94382.47;;;-0.59;100.00
52923;BME280;38796;42.702;23.306;2023-01-27T07:36:22;94392.47;;;-0.53;100.00
52923;BME280;38796;42.702;23.306;2023-01-27T07:38:21;94389.78;;;-0.52;100.00
52923;BME280;38796;42.702;23.306;2023-01-27T07:40:19;94391.81;;;-0.57;100.00
52923;BME280;38796;42.702;23.306;2023-01-27T07:42:17;94400.41;;;-0.56;100.00
52923;BME280;38796;42.702;23.306;2023-01-27T07:44:18;94398.28;;;-0.50;100.00
52923;BME280;38796;42.702;23.306;2023-01-27T07:46:19;94392.94;;;-0.46;100.00
52923;BME280;38796;42.702;23.306;2023-01-27T07:48:19;94400.72;;;-0.46;100.00
52923;BME280;38796;42.702;23.306;2023-01-27T07:50:17;94403.19;;;-0.45;100.00
52923;BME280;38796;42.702;23.306;2023-01-27T07:52:16;94400.91;;;-0.35;100.00
52923;BME280;38796;42.702;23.306;2023-01-27T07:54:14;94395.44;;;-0.31;100.00
52923;BME280;38796;42.702;23.306;2023-01-27T07:56:13;94391.47;;;-0.36;100.00
52923;BME280;38796;42.702;23.306;2023-01-27T07:58:11;94397.38;;;-0.34;100.00
52923;BME280;38796;42.702;23.306;2023-01-27T08:00:10;94409.88;;;-0.27;100.00
52923;BME280;38796;42.702;23.306;2023-01-27T08:02:13;94399.78;;;-0.31;100.00
52923;BME280;38796;42.702;23.306;2023-01-27T08:04:11;94396.84;;;-0.25;100.00
52923;BME280;38796;42.702;23.306;2023-01-27T08:06:11;94394.03;;;-0.36;100.00
52923;BME280;38796;42.702;23.306;2023-01-27T08:08:09;94400.81;;;-0.34;100.00
52923;BME280;38796;42.702;23.306;2023-01-27T08:10:09;94382.53;;;-0.31;100.00
52923;BME280;38796;42.702;23.306;2023-01-27T08:12:08;94394.34;;;-0.27;100.00
52923;BME280;38796;42.702;23.306;2023-01-27T08:14:06;94396.13;;;-0.13;100.00
52923;BME280;38796;42.702;23.306;2023-01-27T08:16:06;94390.41;;;-0.04;100.00
52923;BME280;38796;42.702;23.306;2023-01-27T08:18:07;94390.75;;;-0.10;100.00
52923;BME280;38796;42.702;23.306;2023-01-27T08:20:07;94391.88;;;-0.14;100.00
52923;BME280;38796;42.702;23.306;2023-01-27T08:22:07;94390.47;;;-0.19;100.00
52923;BME280;38796;42.702;23.306;2023-01-27T08:24:06;94385.47;;;-0.22;100.00
52923;BME280;38796;42.702;23.306;2023-01-27T08:26:06;94388.34;;;-0.27;100.00
52923;BME280;38796;42.702;23.306;2023-01-27T08:28:04;94394.16;;;-0.23;100.00
52923;BME280;38796;42.702;23.306;2023-01-27T08:30:03;94408.50;;;-0.32;100.00
52923;BME280;38796;42.702;23.306;2023-01-27T08:32:02;94407.91;;;-0.37;100.00
52923;BME280;38796;42.702;23.306;2023-01-27T08:34:02;94412.44;;;-0.41;100.00
52923;BME280;38796;42.702;23.306;2023-01-27T08:36:06;94405.13;;;-0.49;100.00
52923;BME280;38796;42.702;23.306;2023-01-27T08:38:05;94406.88;;;-0.49;100.00
52923;BME280;38796;42.702;23.306;2023-01-27T08:40:04;94418.97;;;-0.50;100.00
52923;BME280;38796;42.702;23.306;2023-01-27T08:42:03;94409.53;;;-0.51;100.00
52923;BME280;38796;42.702;23.306;2023-01-27T08:44:01;94412.13;;;-0.51;100.00
52923;BME280;38796;42.702;23.306;2023-01-27T08:45:59;94420.09;;;-0.54;100.00
52923;BME280;38796;42.702;23.306;2023-01-27T08:47:58;94422.84;;;-0.57;100.00
52923;BME280;38796;42.702;23.306;2023-01-27T08:49:58;94411.09;;;-0.62;100.00
52923;BME280;38796;42.702;23.306;2023-01-27T08:51:56;94407.59;;;-0.61;100.00
52923;BME280;38796;42.702;23.306;2023-01-27T08:53:54;94403.06;;;-0.58;100.00
52923;BME280;38796;42.702;23.306;2023-01-27T08:55:55;94413.97;;;-0.53;100.00
52923;BME280;38796;42.702;23.306;2023-01-27T08:57:53;94411.06;;;-0.46;100.00
52923;BME280;38796;42.702;23.306;2023-01-27T08:59:52;94411.31;;;-0.37;100.00
52923;BME280;38796;42.702;23.306;2023-01-27T09:01:50;94412.13;;;-0.06;100.00
52923;BME280;38796;42.702;23.306;2023-01-27T09:03:49;94405.81;;;-0.16;100.00
52923;BME280;38796;42.702;23.306;2023-01-27T09:05:49;94410.69;;;-0.26;100.00
52923;BME280;38796;42.702;23.306;2023-01-27T09:07:47;94405.31;;;-0.37;100.00
52923;BME280;38796;42.702;23.306;2023-01-27T09:09:47;94411.06;;;-0.32;100.00
52923;BME280;38796;42.702;23.306;2023-01-27T09:11:54;94406.72;;;-0.32;100.00
52923;BME280;38796;42.702;23.306;2023-01-27T09:13:52;94403.09;;;-0.29;100.00
52923;BME280;38796;42.702;23.306;2023-01-27T09:15:53;94398.22;;;-0.19;100.00
52923;BME280;38796;42.702;23.306;2023-01-27T09:17:52;94401.13;;;-0.10;100.00
52923;BME280;38796;42.702;23.306;2023-01-27T09:20:00;94402.94;;;-0.12;99.97
52923;BME280;38796;42.702;23.306;2023-01-27T09:22:03;94399.16;;;-0.20;100.00
52923;BME280;38796;42.702;23.306;2023-01-27T09:24:02;94402.88;;;-0.10;100.00
52923;BME280;38796;42.702;23.306;2023-01-27T09:26:00;94402.31;;;-0.01;100.00
52923;BME280;38796;42.702;23.306;2023-01-27T09:27:59;94396.84;;;0.04;100.00
52923;BME280;38796;42.702;23.306;2023-01-27T09:29:57;94391.22;;;0.26;99.83
52923;BME280;38796;42.702;23.306;2023-01-27T09:31:56;94382.84;;;0.49;98.84
52923;BME280;38796;42.702;23.306;2023-01-27T09:33:54;94379.47;;;0.61;97.26
52923;BME280;38796;42.702;23.306;2023-01-27T09:35:56;94383.19;;;0.57;95.95
52923;BME280;38796;42.702;23.306;2023-01-27T09:37:57;94383.31;;;0.56;96.07
52923;BME280;38796;42.702;23.306;2023-01-27T09:39:58;94376.66;;;0.52;96.97
52923;BME280;38796;42.702;23.306;2023-01-27T09:42:11;94368.97;;;0.50;97.38
52923;BME280;38796;42.702;23.306;2023-01-27T09:44:33;94374.25;;;0.48;97.42
52923;BME280;38796;42.702;23.306;2023-01-27T09:47:03;94367.94;;;0.53;97.45
52923;BME280;38796;42.702;23.306;2023-01-27T09:49:31;94366.19;;;0.53;96.81
52923;BME280;38796;42.702;23.306;2023-01-27T09:51:41;94368.69;;;0.55;96.54
52923;BME280;38796;42.702;23.306;2023-01-27T09:56:11;94358.47;;;0.66;95.67
52923;BME280;38796;42.702;23.306;2023-01-27T09:58:14;94363.78;;;0.50;96.02
52923;BME280;38796;42.702;23.306;2023-01-27T10:00:28;94361.13;;;0.52;95.73
52923;BME280;38796;42.702;23.306;2023-01-27T10:02:42;94356.31;;;0.45;94.92
52923;BME280;38796;42.702;23.306;2023-01-27T10:05:00;94348.19;;;0.37;96.33
52923;BME280;38796;42.702;23.306;2023-01-27T10:07:14;94346.63;;;0.20;97.59
52923;BME280;38796;42.702;23.306;2023-01-27T10:09:36;94343.13;;;0.07;97.53
52923;BME280;38796;42.702;23.306;2023-01-27T10:11:47;94344.47;;;0.00;98.45
52923;BME280;38796;42.702;23.306;2023-01-27T10:13:58;94348.78;;;-0.01;99.41
52923;BME280;38796;42.702;23.306;2023-01-27T10:16:11;94340.00;;;0.02;99.52
52923;BME280;38796;42.702;23.306;2023-01-27T10:18:23;94341.94;;;-0.02;99.58
52923;BME280;38796;42.702;23.306;2023-01-27T10:20:31;94344.25;;;-0.11;100.00
52923;BME280;38796;42.702;23.306;2023-01-27T10:22:39;94351.19;;;-0.12;99.83
52923;BME280;38796;42.702;23.306;2023-01-27T10:24:54;94343.34;;;-0.25;99.32
52923;BME280;38796;42.702;23.306;2023-01-27T10:27:01;94347.59;;;-0.23;99.84
52923;BME280;38796;42.702;23.306;2023-01-27T10:29:07;94340.66;;;-0.23;100.00